Time;durP1;ratioP1;P1;durP2;ratioP2;P2;SDS_P1;SDS_P2;PMS_P1;PMS_P2;Temp;Humidity;BMP_temperature;BMP_pressure;BME280_temperature;BME280_humidity;BME280_pressure;Samples;Min_cycle;Max_cycle;Signal;HPM_P1;HPM_P2
2022/08/01 00:00:36;;;;;;;4.03;3.72;;;;;;;20.67;67.01;97986.00;5022528;28;20041;-81
2022/08/01 00:03:04;;;;;;;3.72;3.50;;;;;;;20.66;66.84;97985.19;5023042;28;20041;-81
2022/08/01 00:05:31;;;;;;;4.85;4.45;;;;;;;20.52;66.95;97992.94;5027175;28;20125;-81
2022/08/01 00:07:59;;;;;;;4.25;3.95;;;;;;;20.39;67.66;97974.78;5027079;28;20037;-81
2022/08/01 00:10:26;;;;;;;4.10;3.75;;;;;;;20.45;67.26;97984.41;5025089;28;20033;-80
2022/08/01 00:12:52;;;;;;;4.00;3.70;;;;;;;20.43;67.70;97991.00;5023297;28;20060;-81
2022/08/01 00:15:19;;;;;;;4.57;4.28;;;;;;;20.35;67.64;97981.69;5024532;28;20069;-81
2022/08/01 00:17:46;;;;;;;3.85;3.55;;;;;;;20.45;67.67;97994.22;5025222;28;20481;-80
2022/08/01 00:20:14;;;;;;;3.53;3.22;;;;;;;20.53;67.65;97997.19;5022079;28;20504;-80
2022/08/01 00:22:41;;;;;;;3.63;3.42;;;;;;;20.50;67.35;97988.91;5025400;28;20044;-81
2022/08/01 00:25:08;;;;;;;3.83;3.53;;;;;;;20.60;67.39;97996.13;5023264;28;20176;-81
2022/08/01 00:27:35;;;;;;;4.25;3.95;;;;;;;20.58;66.79;97993.72;5021385;28;20088;-81
2022/08/01 00:30:05;;;;;;;3.55;3.25;;;;;;;20.64;67.30;97990.00;5013976;28;20037;-81
2022/08/01 00:32:42;;;;;;;3.10;2.90;;;;;;;20.74;66.91;98007.84;5022768;28;20038;-81
2022/08/01 00:35:10;;;;;;;3.80;3.42;;;;;;;20.73;67.34;97999.03;5024196;28;20057;-81
2022/08/01 00:37:37;;;;;;;4.65;3.13;;;;;;;20.71;66.96;97995.84;5026255;28;20082;-80
2022/08/01 00:40:05;;;;;;;3.25;3.05;;;;;;;20.84;66.56;98002.50;5022887;28;20041;-81
2022/08/01 00:42:32;;;;;;;3.35;3.15;;;;;;;20.83;66.52;98000.91;5023118;28;20069;-80
2022/08/01 00:44:59;;;;;;;2.75;2.55;;;;;;;20.87;66.13;97998.50;5024581;28;20037;-81
2022/08/01 00:47:26;;;;;;;3.47;3.17;;;;;;;20.74;65.99;97997.97;5041627;28;20042;-80
2022/08/01 00:49:53;;;;;;;3.22;2.92;;;;;;;20.80;66.24;98006.75;5022672;28;20092;-81
2022/08/01 00:52:20;;;;;;;3.40;3.20;;;;;;;20.69;66.72;98010.50;5024769;28;20483;-81
2022/08/01 00:54:48;;;;;;;3.80;3.50;;;;;;;20.57;66.91;98006.25;5009088;28;20042;-81
2022/08/01 00:57:14;;;;;;;3.50;3.20;;;;;;;20.55;64.97;98013.69;5021164;28;20037;-80
2022/08/01 01:00:04;;;;;;;4.03;3.72;;;;;;;20.39;65.47;98003.25;5025074;28;20517;-80
2022/08/01 01:02:31;;;;;;;4.35;4.05;;;;;;;20.31;66.16;98015.25;5024316;28;20415;-80
2022/08/01 01:04:58;;;;;;;3.20;2.90;;;;;;;20.25;66.16;97993.13;5017949;28;20041;-81
2022/08/01 01:07:59;;;;;;;3.78;3.58;;;;;;;20.25;66.08;98005.66;5025753;28;20322;-81
2022/08/01 01:10:42;;;;;;;3.22;3.03;;;;;;;20.33;66.24;98005.09;5020247;28;20524;-81
2022/08/01 01:13:20;;;;;;;3.40;3.20;;;;;;;20.40;66.34;98013.66;5021827;28;20042;-81
2022/08/01 01:16:10;;;;;;;3.67;3.38;;;;;;;20.43;67.84;98010.47;5023472;28;20099;-80
2022/08/01 01:18:49;;;;;;;3.65;3.33;;;;;;;20.38;67.83;98010.44;5019127;28;20030;-80
2022/08/01 01:21:16;;;;;;;3.47;3.25;;;;;;;20.38;67.14;98015.78;5028030;28;20251;-80
2022/08/01 01:23:53;;;;;;;3.60;3.40;;;;;;;20.28;65.19;98003.25;5026785;28;20116;-80
2022/08/01 01:26:42;;;;;;;3.63;3.40;;;;;;;20.22;66.30;98006.19;5023934;28;20272;-81
2022/08/01 01:29:11;;;;;;;3.92;3.63;;;;;;;20.19;65.35;98007.50;5024403;28;20813;-81
2022/08/01 01:31:51;;;;;;;3.40;3.13;;;;;;;20.21;66.68;97993.91;5029532;28;20390;-81
2022/08/01 01:34:21;;;;;;;3.88;3.58;;;;;;;20.19;65.79;98010.16;5029377;28;20056;-81
2022/08/01 01:36:53;;;;;;;4.32;4.03;;;;;;;20.04;66.52;98010.94;5031497;28;20052;-81
2022/08/01 01:39:24;;;;;;;3.50;3.30;;;;;;;20.00;67.28;98009.84;5028625;28;20045;-81
2022/08/01 01:41:56;;;;;;;3.90;3.60;;;;;;;20.00;66.64;98014.38;5030309;28;20069;-81
2022/08/01 01:44:26;;;;;;;3.70;3.40;;;;;;;20.04;67.17;98029.56;5029004;28;20045;-81
2022/08/01 01:46:56;;;;;;;3.35;3.15;;;;;;;20.12;66.84;98027.47;5028596;28;20083;-81
2022/08/01 01:49:26;;;;;;;3.40;3.20;;;;;;;20.13;67.13;98023.72;5021579;28;20041;-80
2022/08/01 01:51:57;;;;;;;4.43;3.63;;;;;;;20.16;66.86;98023.22;5030010;28;20124;-80
2022/08/01 01:54:40;;;;;;;3.85;3.58;;;;;;;20.16;67.32;98018.69;5026445;28;20037;-80
2022/08/01 01:57:12;;;;;;;3.50;3.30;;;;;;;20.13;66.47;98026.38;5027297;28;20077;-81
2022/08/01 01:59:40;;;;;;;3.80;3.50;;;;;;;20.03;67.42;98019.16;5024970;28;20041;-81
2022/08/01 02:02:09;;;;;;;4.22;3.85;;;;;;;19.95;67.78;98036.47;5030102;28;20440;-80
2022/08/01 02:04:43;;;;;;;3.60;3.35;;;;;;;19.95;68.55;98035.66;5013544;28;20045;-80
2022/08/01 02:07:17;;;;;;;4.10;3.50;;;;;;;19.93;67.96;98030.59;5026475;28;20037;-81
2022/08/01 02:09:47;;;;;;;3.70;3.40;;;;;;;19.99;68.83;98031.41;5027465;28;20037;-81
2022/08/01 02:12:18;;;;;;;3.20;3.00;;;;;;;20.01;67.91;98029.28;5027076;28;20045;-81
2022/08/01 02:14:49;;;;;;;3.15;2.95;;;;;;;20.05;66.82;98043.69;5027508;28;20288;-81
2022/08/01 02:17:19;;;;;;;2.80;2.60;;;;;;;20.02;65.77;98034.34;5029379;28;20489;-80
2022/08/01 02:19:47;;;;;;;3.05;2.85;;;;;;;20.09;66.93;98041.28;5025543;28;20037;-81
2022/08/01 02:22:25;;;;;;;2.95;2.75;;;;;;;19.94;65.51;98042.84;5026738;28;20188;-81
2022/08/01 02:25:02;;;;;;;3.15;2.85;;;;;;;19.93;66.30;98056.41;5024881;28;20049;-81
2022/08/01 02:27:37;;;;;;;3.95;3.65;;;;;;;19.92;67.75;98055.63;5027711;28;20042;-81
2022/08/01 02:30:10;;;;;;;2.88;2.67;;;;;;;19.89;66.81;98050.81;5019265;28;20077;-80
2022/08/01 02:32:42;;;;;;;2.65;2.45;;;;;;;19.99;67.73;98056.19;5025202;28;20049;-81
2022/08/01 02:35:25;;;;;;;3.38;3.17;;;;;;;19.94;66.85;98058.03;5025947;28;20083;-80
2022/08/01 02:37:54;;;;;;;3.30;3.10;;;;;;;19.91;67.09;98063.84;5022535;28;20060;-81
2022/08/01 02:40:23;;;;;;;3.63;3.38;;;;;;;19.82;67.86;98066.22;5026486;28;20045;-81
2022/08/01 02:42:54;;;;;;;3.53;3.33;;;;;;;19.84;68.66;98069.41;5023400;28;20045;-80
2022/08/01 02:45:26;;;;;;;2.83;2.63;;;;;;;19.71;67.89;98053.94;5028620;28;20091;-80
2022/08/01 02:48:01;;;;;;;3.08;2.85;;;;;;;19.73;67.46;98065.09;5025796;28;20044;-81
2022/08/01 02:50:32;;;;;;;2.85;2.65;;;;;;;19.68;68.56;98065.91;5028123;28;20049;-81
2022/08/01 02:53:02;;;;;;;3.40;3.20;;;;;;;19.72;67.81;98066.16;5023725;28;20052;-80
2022/08/01 02:55:33;;;;;;;3.13;2.92;;;;;;;19.68;68.19;98059.78;5025331;28;20045;-80
2022/08/01 02:58:02;;;;;;;3.15;2.95;;;;;;;19.67;67.24;98063.47;5020262;28;20042;-80
2022/08/01 03:00:32;;;;;;;3.00;2.80;;;;;;;19.71;67.81;98069.88;5024093;28;20160;-80
2022/08/01 03:03:03;;;;;;;3.30;3.10;;;;;;;19.58;68.62;98059.69;5023917;28;20037;-81
2022/08/01 03:05:32;;;;;;;3.20;3.00;;;;;;;19.50;68.02;98064.44;5026548;28;20041;-81
2022/08/01 03:08:01;;;;;;;3.15;2.95;;;;;;;19.43;67.96;98069.19;5025969;28;20029;-80
2022/08/01 03:10:34;;;;;;;3.80;3.50;;;;;;;19.34;68.01;98064.59;5024558;28;20045;-81
2022/08/01 03:13:04;;;;;;;3.63;3.38;;;;;;;19.32;68.44;98070.19;5022949;28;20449;-83
2022/08/01 03:15:36;;;;;;;3.75;3.40;;;;;;;19.23;68.10;98066.41;5022194;28;20077;-81
2022/08/01 03:18:07;;;;;;;3.53;3.22;;;;;;;19.18;69.13;98058.38;5021405;28;20098;-82
2022/08/01 03:20:35;;;;;;;4.20;3.90;;;;;;;19.15;68.68;98064.22;5027084;28;20096;-83
2022/08/01 03:23:07;;;;;;;3.90;3.60;;;;;;;19.12;69.68;98067.38;5022617;28;20131;-81
2022/08/01 03:25:38;;;;;;;3.65;3.35;;;;;;;19.10;69.22;98069.50;5022215;28;20125;-81
2022/08/01 03:28:08;;;;;;;3.13;2.92;;;;;;;19.13;68.95;98075.13;5018719;28;20046;-81
2022/08/01 03:30:38;;;;;;;3.70;3.40;;;;;;;19.15;69.23;98072.19;5019750;28;20562;-80
2022/08/01 03:33:05;;;;;;;3.10;2.90;;;;;;;19.10;69.59;98070.31;5021566;28;20320;-80
2022/08/01 03:35:49;;;;;;;3.17;2.97;;;;;;;19.15;69.40;98078.31;5026644;28;20284;-81
2022/08/01 03:38:23;;;;;;;2.80;2.60;;;;;;;19.22;69.63;98075.44;5027274;28;20041;-80
2022/08/01 03:41:09;;;;;;;3.00;2.80;;;;;;;19.21;69.23;98074.63;5026606;28;20049;-81
2022/08/01 03:43:46;;;;;;;3.38;3.08;;;;;;;19.19;70.06;98073.28;5025857;28;20103;-82
2022/08/01 03:46:32;;;;;;;2.80;2.60;;;;;;;19.12;70.65;98073.50;5024552;28;20061;-80
2022/08/01 03:49:14;;;;;;;3.10;2.90;;;;;;;19.08;70.64;98071.63;5025534;28;20065;-81
2022/08/01 03:51:41;;;;;;;3.58;3.28;;;;;;;19.05;70.99;98069.47;5026226;28;20060;-82
2022/08/01 03:54:10;;;;;;;3.30;3.10;;;;;;;18.96;71.12;98075.25;5020597;28;20045;-80
2022/08/01 03:56:39;;;;;;;3.35;3.15;;;;;;;18.96;71.21;98080.56;5027862;28;21168;-81
2022/08/01 03:59:06;;;;;;;3.47;3.28;;;;;;;18.93;71.02;98085.56;5025777;28;20104;-81
2022/08/01 04:01:34;;;;;;;3.65;3.38;;;;;;;18.91;71.26;98090.34;5026589;28;20560;-83
2022/08/01 04:04:01;;;;;;;3.35;3.15;;;;;;;18.88;71.80;98086.34;5020696;28;20029;-81
2022/08/01 04:06:29;;;;;;;3.08;2.88;;;;;;;18.92;71.12;98089.28;5026343;28;20048;-81
2022/08/01 04:08:56;;;;;;;2.95;2.75;;;;;;;19.01;71.26;98081.66;5022703;28;20087;-81
2022/08/01 04:11:27;;;;;;;3.35;2.97;;;;;;;19.06;71.62;98079.81;5025568;28;20106;-81
2022/08/01 04:13:55;;;;;;;2.85;2.65;;;;;;;19.17;71.17;98080.72;5040274;28;20038;-82
2022/08/01 04:16:25;;;;;;;2.38;2.28;;;;;;;19.24;71.29;98087.41;5017799;28;20065;-81
2022/08/01 04:18:51;;;;;;;2.50;2.30;;;;;;;19.28;71.29;98090.38;5021089;28;20116;-81
2022/08/01 04:21:24;;;;;;;3.00;2.80;;;;;;;19.19;70.92;98081.25;5020759;28;20095;-81
2022/08/01 04:23:54;;;;;;;2.67;2.47;;;;;;;19.15;70.83;98085.50;5025658;28;20072;-81
2022/08/01 04:26:22;;;;;;;2.60;2.40;;;;;;;19.20;70.90;98101.50;5023096;28;20038;-81
2022/08/01 04:28:54;;;;;;;2.22;2.10;;;;;;;19.31;71.40;98107.66;5023595;28;20088;-81
2022/08/01 04:31:25;;;;;;;2.70;2.50;;;;;;;19.37;71.52;98110.13;5024852;28;20041;-81
2022/08/01 04:33:56;;;;;;;2.72;2.53;;;;;;;19.46;70.85;98115.75;5025840;28;20512;-81
2022/08/01 04:36:25;;;;;;;2.58;2.38;;;;;;;19.52;70.65;98120.03;5021721;28;20037;-80
2022/08/01 04:38:59;;;;;;;2.40;2.20;;;;;;;19.53;70.79;98116.31;5023551;28;20042;-81
2022/08/01 04:41:29;;;;;;;2.63;2.42;;;;;;;19.57;70.67;98111.31;5025281;28;20097;-81
2022/08/01 04:43:59;;;;;;;2.95;2.60;;;;;;;19.71;70.02;98125.75;5024845;28;20501;-81
2022/08/01 04:46:28;;;;;;;2.67;2.47;;;;;;;19.71;70.57;98133.75;5022359;28;20037;-81
2022/08/01 04:48:56;;;;;;;2.67;2.47;;;;;;;19.68;70.05;98123.63;5020499;28;20041;-81
2022/08/01 04:51:24;;;;;;;2.42;2.22;;;;;;;19.82;71.00;98122.09;5020907;28;20550;-81
2022/08/01 04:53:51;;;;;;;2.30;2.10;;;;;;;19.85;71.06;98129.59;5022449;28;20052;-81
2022/08/01 04:56:20;;;;;;;2.45;2.25;;;;;;;19.89;71.24;98120.00;5025283;28;20091;-81
2022/08/01 04:58:47;;;;;;;2.45;2.25;;;;;;;19.89;71.01;98130.66;5025671;28;20038;-81
2022/08/01 05:01:15;;;;;;;2.42;2.22;;;;;;;19.90;70.72;98124.25;5022262;28;20045;-81
2022/08/01 05:03:42;;;;;;;2.10;2.00;;;;;;;19.92;71.14;98134.69;5023787;28;20041;-81
2022/08/01 05:06:09;;;;;;;2.35;2.20;;;;;;;20.04;71.44;98143.25;5023245;28;20558;-81
2022/08/01 05:08:36;;;;;;;2.10;2.00;;;;;;;20.13;71.66;98146.19;5025126;28;20104;-81
2022/08/01 05:11:03;;;;;;;2.10;2.00;;;;;;;20.18;71.13;98147.03;5024983;28;20057;-81
2022/08/01 05:13:30;;;;;;;2.28;2.17;;;;;;;20.20;71.83;98142.22;5023844;28;20046;-81
2022/08/01 05:15:57;;;;;;;2.20;2.00;;;;;;;20.29;71.36;98153.19;5039398;28;20060;-81
2022/08/01 05:18:26;;;;;;;2.00;1.90;;;;;;;20.31;70.81;98149.19;5019913;28;20050;-81
2022/08/01 05:20:54;;;;;;;1.92;1.83;;;;;;;20.34;70.18;98141.78;5023128;28;20038;-81
2022/08/01 05:23:21;;;;;;;2.40;2.20;;;;;;;20.31;69.78;98151.06;5018703;28;20520;-80
2022/08/01 05:26:13;;;;;;;2.38;1.90;;;;;;;20.37;70.17;98152.69;5020922;28;20061;-80
2022/08/01 05:28:42;;;;;;;2.65;2.45;;;;;;;20.45;70.38;98154.91;5018033;28;20034;-81
2022/08/01 05:31:08;;;;;;;1.80;1.70;;;;;;;20.54;70.28;98150.63;5021351;28;20049;-81
2022/08/01 05:33:35;;;;;;;2.10;1.95;;;;;;;20.61;70.13;98152.25;5024340;28;20407;-81
2022/08/01 05:36:02;;;;;;;1.83;1.73;;;;;;;20.71;70.01;98157.63;5022832;28;20112;-81
2022/08/01 05:38:29;;;;;;;1.90;1.80;;;;;;;20.83;70.67;98155.50;5025750;28;20103;-81
2022/08/01 05:40:56;;;;;;;2.08;1.90;;;;;;;20.91;69.50;98152.31;5024475;28;20046;-81
2022/08/01 05:43:23;;;;;;;2.15;1.90;;;;;;;21.02;68.83;98153.91;5008656;28;20449;-80
2022/08/01 05:45:54;;;;;;;2.15;2.05;;;;;;;21.10;68.43;98149.91;5022201;28;20068;-80
2022/08/01 05:48:21;;;;;;;1.80;1.70;;;;;;;21.14;68.24;98152.88;5022028;28;20104;-80
2022/08/01 05:50:49;;;;;;;1.70;1.60;;;;;;;21.23;67.86;98154.75;5023464;28;20076;-81
2022/08/01 05:53:16;;;;;;;3.00;2.00;;;;;;;21.31;68.43;98153.44;5022484;28;20100;-80
2022/08/01 05:55:43;;;;;;;1.98;1.83;;;;;;;21.40;68.26;98143.81;5020988;28;20552;-81
2022/08/01 05:58:09;;;;;;;1.98;1.83;;;;;;;21.40;69.45;98149.16;5021999;28;20073;-81
2022/08/01 06:00:39;;;;;;;2.20;1.98;;;;;;;21.41;67.71;98145.44;5000443;28;20073;-80
2022/08/01 06:03:05;;;;;;;2.53;2.05;;;;;;;21.43;67.28;98150.50;5018598;28;20610;-81
2022/08/01 06:05:33;;;;;;;2.20;2.00;;;;;;;21.50;68.76;98151.00;5021297;28;20520;-81
2022/08/01 06:07:59;;;;;;;2.42;2.22;;;;;;;21.56;67.57;98156.06;5025935;28;20034;-81
2022/08/01 06:10:26;;;;;;;2.13;2.03;;;;;;;21.63;68.42;98159.25;5025091;28;20096;-80
2022/08/01 06:12:53;;;;;;;1.90;1.80;;;;;;;21.71;69.50;98154.44;5024314;28;20429;-82
2022/08/01 06:15:20;;;;;;;2.70;2.50;;;;;;;21.82;67.09;98166.69;5026456;28;20103;-82
2022/08/01 06:17:47;;;;;;;2.05;1.95;;;;;;;21.95;69.92;98166.16;5030187;28;20033;-82
2022/08/01 06:20:13;;;;;;;2.28;2.13;;;;;;;21.91;66.16;98168.56;5027595;28;20154;-82
2022/08/01 06:22:40;;;;;;;2.15;1.95;;;;;;;21.94;67.38;98169.88;5029714;28;20041;-81
2022/08/01 06:25:08;;;;;;;1.80;1.70;;;;;;;22.10;68.40;98168.00;5025917;28;20041;-82
2022/08/01 06:27:35;;;;;;;2.55;1.90;;;;;;;22.03;67.09;98173.59;5026308;28;20037;-83
2022/08/01 06:30:04;;;;;;;2.30;2.10;;;;;;;21.95;65.48;98165.31;5021842;28;20041;-83
2022/08/01 06:32:33;;;;;;;2.50;2.15;;;;;;;21.88;66.23;98179.75;5025495;28;20053;-83
2022/08/01 06:35:00;;;;;;;2.67;2.20;;;;;;;21.86;65.70;98176.56;5024382;28;20093;-83
2022/08/01 06:37:30;;;;;;;2.35;2.20;;;;;;;21.72;66.15;98180.88;5027262;28;20075;-84
2022/08/01 06:40:09;;;;;;;3.75;3.45;;;;;;;21.65;66.95;98183.00;5023784;28;20555;-84
2022/08/01 06:42:45;;;;;;;2.03;1.92;;;;;;;21.71;67.00;98181.13;5022721;28;20532;-83
2022/08/01 06:45:14;;;;;;;2.20;2.10;;;;;;;21.72;66.53;98180.09;5026984;28;20037;-84
2022/08/01 06:47:43;;;;;;;2.20;2.00;;;;;;;21.82;67.27;98177.38;5024000;28;20095;-83
2022/08/01 06:50:17;;;;;;;2.65;2.45;;;;;;;21.89;66.36;98193.91;5027131;28;20042;-84
2022/08/01 06:52:43;;;;;;;2.08;1.98;;;;;;;21.89;67.85;98180.56;5023878;28;20049;-83
2022/08/01 06:55:11;;;;;;;2.28;1.92;;;;;;;21.98;66.20;98186.97;5024008;28;20470;-85
2022/08/01 06:57:52;;;;;;;1.75;1.65;;;;;;;22.14;67.89;98190.44;5026587;28;20832;-84
2022/08/01 07:00:23;;;;;;;1.85;1.67;;;;;;;22.14;65.97;98185.09;5022545;28;20037;-83
2022/08/01 07:02:51;;;;;;;1.88;1.60;;;;;;;22.27;66.35;98181.81;5021547;28;20041;-85
2022/08/01 07:05:19;;;;;;;2.95;2.10;;;;;;;22.28;63.94;98191.44;5021595;28;20069;-86
2022/08/01 07:07:46;;;;;;;2.15;2.00;;;;;;;22.26;64.22;98193.59;5025622;28;20501;-86
2022/08/01 07:10:14;;;;;;;2.47;1.92;;;;;;;22.17;64.16;98195.22;5009354;28;20144;-85
2022/08/01 07:12:41;;;;;;;2.20;2.00;;;;;;;22.17;64.77;98192.53;5021204;28;20037;-85
2022/08/01 07:15:10;;;;;;;1.85;1.75;;;;;;;22.30;65.30;98193.81;5018428;28;20576;-84
2022/08/01 07:17:39;;;;;;;2.47;1.90;;;;;;;22.33;64.28;98187.94;5020979;28;20925;-85
2022/08/01 07:20:11;;;;;;;2.35;1.55;;;;;;;22.44;64.10;98195.66;5023485;28;20056;-88
2022/08/01 07:22:42;;;;;;;2.17;1.60;;;;;;;22.55;65.24;98200.94;5024144;28;20056;-84
2022/08/01 07:25:13;;;;;;;2.58;1.73;;;;;;;22.49;63.56;98188.66;5023929;28;21320;-85
2022/08/01 07:27:40;;;;;;;1.92;1.73;;;;;;;22.55;65.18;98196.41;5023327;28;20100;-84
2022/08/01 07:30:08;;;;;;;1.80;1.50;;;;;;;22.83;63.49;98196.78;5019729;28;20049;-84
2022/08/01 07:32:36;;;;;;;2.00;1.85;;;;;;;23.14;62.28;98198.19;5040175;28;20049;-86
2022/08/01 07:35:04;;;;;;;1.70;1.60;;;;;;;23.23;64.87;98191.19;5022799;28;20204;-83
2022/08/01 07:37:31;;;;;;;1.65;1.38;;;;;;;23.60;64.50;98197.84;5038484;28;20094;-83
2022/08/01 07:40:17;;;;;;;1.75;1.63;;;;;;;23.72;61.04;98184.91;5024826;28;20402;-85
2022/08/01 07:42:44;;;;;;;1.92;1.70;;;;;;;23.82;59.71;98185.91;5025723;28;20037;-87
2022/08/01 07:45:13;;;;;;;2.20;1.98;;;;;;;23.70;59.95;98194.31;5026580;28;20689;-85
2022/08/01 07:47:41;;;;;;;2.33;2.00;;;;;;;23.59;60.10;98188.22;5025964;28;20740;-86
2022/08/01 07:50:08;;;;;;;1.83;1.73;;;;;;;23.73;59.27;98205.25;5026540;28;21159;-85
2022/08/01 07:52:35;;;;;;;1.95;1.85;;;;;;;23.86;59.32;98197.63;5025777;28;20057;-87
2022/08/01 07:55:04;;;;;;;2.30;2.10;;;;;;;23.95;58.26;98190.59;5026078;28;20040;-86
2022/08/01 07:57:31;;;;;;;1.83;1.73;;;;;;;24.39;58.41;98194.94;5021958;28;20040;-84
2022/08/01 07:59:59;;;;;;;2.25;1.85;;;;;;;24.75;57.59;98185.34;5022067;28;20475;-85
2022/08/01 08:02:26;;;;;;;2.38;2.17;;;;;;;24.74;57.58;98191.00;5021515;28;20116;-85
2022/08/01 08:04:53;;;;;;;2.83;2.15;;;;;;;24.55;57.42;98188.31;5024622;28;20121;-86
2022/08/01 08:07:20;;;;;;;1.92;1.83;;;;;;;24.43;57.19;98187.91;5018229;28;20041;-84
2022/08/01 08:09:47;;;;;;;2.72;2.00;;;;;;;24.17;57.37;98182.03;5020594;28;20107;-83
2022/08/01 08:12:17;;;;;;;1.90;1.80;;;;;;;24.16;58.75;98180.44;5025425;28;20053;-84
2022/08/01 08:14:46;;;;;;;2.70;2.00;;;;;;;23.96;58.01;98192.97;5026327;28;20408;-87
2022/08/01 08:17:14;;;;;;;1.88;1.77;;;;;;;23.85;59.89;98191.47;5024223;28;20057;-87
2022/08/01 08:19:41;;;;;;;2.00;1.80;;;;;;;23.70;58.68;98188.97;5023666;28;20520;-86
2022/08/01 08:22:09;;;;;;;2.47;2.35;;;;;;;23.50;59.21;98196.03;5025760;28;20041;-88
2022/08/01 08:24:38;;;;;;;2.63;2.25;;;;;;;23.35;58.90;98193.50;5040100;28;20061;-86
2022/08/01 08:27:13;;;;;;;2.67;2.17;;;;;;;23.72;60.71;98198.31;5024639;28;20057;-83
2022/08/01 08:29:41;;;;;;;2.38;2.17;;;;;;;23.95;58.12;98190.59;5023675;28;20045;-85
2022/08/01 08:32:09;;;;;;;2.35;2.15;;;;;;;24.30;56.75;98170.63;5025970;28;20251;-85
2022/08/01 08:34:38;;;;;;;1.80;1.70;;;;;;;24.35;57.37;98189.38;5023393;28;20088;-87
2022/08/01 08:37:07;;;;;;;2.47;2.28;;;;;;;24.16;56.06;98191.94;5023220;28;20073;-83
2022/08/01 08:39:35;;;;;;;1.70;1.60;;;;;;;24.32;56.87;98183.72;5025664;28;20056;-86
2022/08/01 08:42:12;;;;;;;1.70;1.60;;;;;;;24.37;57.35;98178.34;5023578;28;20050;-85
2022/08/01 08:44:42;;;;;;;1.52;1.42;;;;;;;24.29;58.32;98191.28;5015330;28;20045;-84
2022/08/01 08:47:15;;;;;;;1.73;1.50;;;;;;;24.43;57.33;98186.03;5025391;28;20497;-84
2022/08/01 08:52:39;;;;;;;1.70;1.60;;;;;;;24.29;56.54;98187.81;5342063;22;20061;-85
2022/08/01 08:55:08;;;;;;;1.80;1.70;;;;;;;24.38;55.65;98179.94;5030041;28;20063;-83
2022/08/01 08:57:35;;;;;;;1.75;1.65;;;;;;;24.51;56.06;98190.75;5029803;28;20067;-84
2022/08/01 09:00:05;;;;;;;1.33;1.23;;;;;;;24.62;55.31;98175.34;5010065;28;20396;-85
2022/08/01 09:02:32;;;;;;;1.60;1.50;;;;;;;24.87;55.50;98178.75;5029414;28;20072;-84
2022/08/01 09:04:59;;;;;;;2.30;1.45;;;;;;;25.16;53.07;98190.13;5030301;28;20041;-83
2022/08/01 09:07:26;;;;;;;1.40;1.30;;;;;;;25.65;52.46;98186.09;5031772;28;20095;-84
2022/08/01 09:09:53;;;;;;;1.40;1.30;;;;;;;25.73;54.06;98185.47;5028280;28;20119;-84
2022/08/01 09:12:21;;;;;;;2.15;1.50;;;;;;;25.19;51.95;98188.75;5032090;28;20072;-83
2022/08/01 09:14:50;;;;;;;1.85;1.60;;;;;;;24.98;51.18;98188.25;5037904;28;20664;-85
2022/08/01 09:17:17;;;;;;;2.88;1.38;;;;;;;25.00;51.73;98184.16;5048739;28;20049;-82
2022/08/01 09:19:53;;;;;;;1.10;1.10;;;;;;;25.25;51.85;98192.94;5030945;28;20049;-84
2022/08/01 09:22:24;;;;;;;1.52;1.10;;;;;;;25.72;51.25;98178.44;5048019;28;20049;-86
2022/08/01 09:25:05;;;;;;;1.73;1.20;;;;;;;26.09;49.63;98184.81;5029891;28;20046;-85
2022/08/01 09:27:40;;;;;;;1.13;1.13;;;;;;;26.13;50.11;98177.72;5043575;28;20049;-85
2022/08/01 09:30:18;;;;;;;1.20;1.10;;;;;;;26.00;50.04;98179.31;5038489;28;20076;-83
2022/08/01 09:33:01;;;;;;;1.27;1.17;;;;;;;25.60;50.48;98181.63;5033231;28;20055;-88
2022/08/01 09:35:45;;;;;;;1.23;1.00;;;;;;;25.42;51.52;98181.66;5031408;28;20072;-86
2022/08/01 09:38:23;;;;;;;0.77;0.77;;;;;;;25.39;52.71;98190.31;5032296;28;20052;-83
2022/08/01 09:40:59;;;;;;;1.00;1.00;;;;;;;25.29;54.30;98194.75;5030386;28;20053;-86
2022/08/01 09:43:30;;;;;;;1.20;1.00;;;;;;;25.09;52.60;98187.03;5034137;28;20054;-84
2022/08/01 09:46:04;;;;;;;1.98;1.40;;;;;;;25.11;52.93;98194.78;5033720;28;20113;-83
2022/08/01 09:48:32;;;;;;;1.00;1.00;;;;;;;25.57;52.90;98192.97;5035693;28;20378;-85
2022/08/01 09:51:00;;;;;;;1.25;1.13;;;;;;;25.63;52.35;98188.31;5031953;28;21331;-85
2022/08/01 09:53:48;;;;;;;0.93;0.85;;;;;;;25.62;51.51;98189.41;5034500;28;20041;-85
2022/08/01 09:56:21;;;;;;;1.02;1.02;;;;;;;25.78;53.77;98181.88;5039393;28;20076;-84
2022/08/01 09:58:49;;;;;;;0.90;0.90;;;;;;;26.06;51.72;98185.41;5036383;28;20053;-85
2022/08/01 10:01:25;;;;;;;1.40;1.20;;;;;;;25.85;49.53;98185.78;5049439;28;20050;-83
2022/08/01 10:04:07;;;;;;;1.50;1.40;;;;;;;25.84;52.19;98170.75;5024060;28;20041;-83
2022/08/01 10:06:37;;;;;;;1.65;1.20;;;;;;;25.50;49.45;98168.38;5034216;28;20400;-83
2022/08/01 10:09:04;;;;;;;1.30;1.20;;;;;;;25.62;50.93;98174.06;5030857;28;20045;-86
2022/08/01 10:11:43;;;;;;;1.30;1.20;;;;;;;25.56;51.75;98163.72;5039859;28;20045;-85
2022/08/01 10:14:13;;;;;;;0.98;0.90;;;;;;;25.56;49.19;98166.41;5033853;28;20045;-85
2022/08/01 10:16:46;;;;;;;1.13;1.00;;;;;;;25.64;50.39;98171.09;5033857;28;20038;-85
2022/08/01 10:19:23;;;;;;;1.30;1.20;;;;;;;25.59;51.32;98168.50;5041682;28;20045;-83
2022/08/01 10:21:56;;;;;;;1.67;1.20;;;;;;;25.53;49.68;98158.94;5033397;28;20049;-84
2022/08/01 10:24:29;;;;;;;1.60;1.30;;;;;;;25.58;50.57;98166.91;5034959;28;20036;-84
2022/08/01 10:27:05;;;;;;;;;;;;;;;25.64;48.61;98165.72;5035113;28;20091;-84
2022/08/01 10:30:03;;;;;;;1.48;1.33;;;;;;;25.78;48.25;98174.63;5035401;28;19921;-84
2022/08/01 10:32:49;;;;;;;2.33;2.00;;;;;;;25.67;48.77;98153.56;5033621;28;20530;-84
2022/08/01 10:35:18;;;;;;;1.70;1.60;;;;;;;25.68;48.34;98161.34;5032741;28;20910;-87
2022/08/01 10:38:07;;;;;;;1.30;1.20;;;;;;;25.86;48.79;98149.75;5030697;28;20435;-84
2022/08/01 10:40:41;;;;;;;1.20;1.10;;;;;;;25.89;50.92;98161.78;5033850;28;20074;-83
2022/08/01 10:43:16;;;;;;;1.92;1.23;;;;;;;25.83;50.72;98153.03;5036323;28;20116;-84
2022/08/01 10:45:49;;;;;;;1.25;1.20;;;;;;;25.77;51.83;98148.84;5034582;28;20049;-85
2022/08/01 10:48:39;;;;;;;1.10;1.10;;;;;;;25.65;49.65;98161.94;5033811;28;20041;-83
2022/08/01 10:51:07;;;;;;;1.23;1.13;;;;;;;25.66;52.77;98158.16;5031630;28;20110;-83
2022/08/01 10:53:52;;;;;;;1.40;1.30;;;;;;;25.68;52.41;98166.72;5034587;28;20049;-85
2022/08/01 10:56:22;;;;;;;1.60;1.50;;;;;;;25.67;50.14;98165.13;5034868;28;20105;-83
2022/08/01 10:59:03;;;;;;;1.30;1.20;;;;;;;25.83;55.46;98153.03;5047403;28;20081;-84
2022/08/01 11:01:38;;;;;;;2.58;1.80;;;;;;;25.84;50.62;98165.38;5033503;28;20085;-84
2022/08/01 11:04:14;;;;;;;1.45;1.35;;;;;;;25.87;54.66;98169.38;5047312;28;20058;-82
2022/08/01 11:07:04;;;;;;;1.05;1.05;;;;;;;26.09;50.38;98171.38;5029790;28;20060;-84
2022/08/01 11:09:42;;;;;;;1.40;1.30;;;;;;;26.15;51.06;98164.81;5029136;28;20045;-85
2022/08/01 11:12:17;;;;;;;1.67;1.58;;;;;;;26.09;51.19;98172.16;5032930;28;20502;-86
2022/08/01 11:14:58;;;;;;;1.95;1.30;;;;;;;26.17;48.90;98167.97;5033772;28;20037;-84
2022/08/01 11:17:33;;;;;;;1.58;1.48;;;;;;;26.04;51.23;98148.06;5034900;28;20057;-87
2022/08/01 11:20:04;;;;;;;1.40;1.30;;;;;;;26.32;49.61;98164.19;5034935;28;20068;-84
2022/08/01 11:23:05;;;;;;;;;;;;;;;26.33;47.78;98165.75;5035221;28;20051;-84
2022/08/01 11:25:36;;;;;;;1.75;1.65;;;;;;;26.56;47.22;98161.28;5032462;28;20734;-84
2022/08/01 11:28:26;;;;;;;3.63;2.13;;;;;;;26.46;48.17;98153.44;5034384;28;20480;-84
2022/08/01 11:31:07;;;;;;;1.50;1.20;;;;;;;26.50;47.65;98165.19;5034536;28;20091;-84
2022/08/01 11:33:42;;;;;;;1.75;1.45;;;;;;;26.67;47.08;98166.13;5034295;28;20099;-85
2022/08/01 11:36:12;;;;;;;1.30;1.20;;;;;;;26.77;47.63;98158.94;5046672;28;20041;-83
2022/08/01 11:39:10;;;;;;;1.50;1.40;;;;;;;26.54;46.62;98152.72;5035366;28;20049;-84
2022/08/01 11:41:42;;;;;;;1.30;1.20;;;;;;;26.59;49.83;98152.63;5033552;28;20055;-85
2022/08/01 11:44:22;;;;;;;1.83;1.30;;;;;;;26.68;48.19;98156.16;5032218;28;20492;-85
2022/08/01 11:47:07;;;;;;;1.48;1.38;;;;;;;26.70;51.28;98155.88;5034406;28;20045;-84
2022/08/01 11:49:54;;;;;;;1.60;1.45;;;;;;;26.77;51.33;98162.44;5034045;28;20042;-83
2022/08/01 11:52:33;;;;;;;1.52;1.42;;;;;;;26.84;50.35;98159.31;5033325;28;20056;-83
2022/08/01 11:55:00;;;;;;;1.73;1.63;;;;;;;26.68;50.78;98151.56;5034590;28;20803;-84
2022/08/01 11:57:33;;;;;;;1.83;1.63;;;;;;;26.85;53.21;98161.69;5049698;28;20061;-84